Terminal Aerodrome Forecast
Issued by NWS

Home | Current Version | Previous Version | Text Only | Print | Product List | Glossary On
Versions: 1 2 3 4 5 6 7 8 9 10 11 12 13 14 15 16 17 18 19 20 21 22 23 24 25 26 27 28 29 30 31 32 33 34 35 36
000
FTUS43 KDDC 251436 AAC
TAFLBL
TAF AMD
KLBL 251436Z 2515/2612 33011KT P6SM RA VCSH OVC013
     FM251900 35018KT P6SM OVC022
     FM252200 36013KT P6SM BKN035=

USA.gov is the U.S. government's official web portal to all federal, state and local government web resources and services.